Quimperlé, Foret de Toulfoen (29) - H

Date : 02/11/2012
Distance : 3,000 km

Place Nom Licence Catégorie Club Temps min/km CN à J-60 Points Différence Nouveau CN
1 CROCHET Gerard 2817 H70 1705PC 0:47:34 15'51 4195 4956 +761 4752
2 LARMINACH Andre 646 H70 3308AQ 0:48:07 16'02 4374 4899 +525 4808
3 SIMONET Jean 930 H70 7707IF 0:48:28 16'09 4851 4864 +13 5395
4 DEVILLE Nelly 2401 D60 5402LO 0:49:03 16'21 4716 4806 +90 5091
5 DUBROCA Monique 633 D65 3308AQ 0:50:13 16'44 4912 4695 -217 4912
6 CHALOPIN Catherine 3674 D60 2105BO 0:53:17 17'45 3949 4424 +475 4192
7 BRUNEL Marie-Jo 8761 D60 8903BO 0:53:59 17'59 3580 4367 +787 3959
8 BLASCO Nicole 395 D65 2406AQ 0:55:10 18'23 3945 4273 +328 4099
9 BLASCO Serge 396 H70 2406AQ 0:56:02 18'40 3944 4207 +263 4157
10 RICHARD Nicole 14245 D60 0207PI 0:59:25 19'48 3396 3968 +572 3766
11 EUZEN J-Paul 16403 H70 6911RA 1:00:46 20'15 2904 3880 +976 4327
12 DIEUDONNE Madeleine 1380 D65 7808IF 1:03:08 21'02 4391 3734 -657 4836
13 COULON Annick 10073 D60 0615AZ 1:04:11 21'23 3722 3673 -49 3551
14 LABROUSSE J-Pierre 1563 H70 6413AQ 1:04:13 21'24 3860 3671 -189 3762
15 VOGT Christiane 2557 D65 6709AL 1:04:48 21'36 4034 3638 -396 4041
16 ANTOINE Regis 1276 H70 7108BO 1:05:33 21'51 3758 3596 -162 3798
17 COLLETER J-Claude 1264 H70 1705PC 1:05:45 21'55 2545 3585 +1040 3681
18 DRAULT J-Raymond 4234 H70 8702LI 1:06:04 22'01 3180 3568 +388 3490
19 LABEUR Roselyne 905 D60 7707IF 1:06:44 22'14 3903 3533 -370 4078
20 GRAIN Nathalie 24640 D45 2704NM 1:07:31 22'30 2290 3492 +1202 3368
21 OUDIN M-Reine 7574 D60 6804AL 1:07:44 22'34 3603 3481 -122 3781
22 BEGU Aurore 9042 D40 7707IF 1:08:20 22'46 3136 3450 +314 3268
23 MERIGUET Valérie 16687 D40 7807IF 1:08:38 22'52 3378 3435 +57 3445
24 PROST Daniel 2181 H70 9307IF 1:08:56 22'58 3046 3420 +374 3478
25 PICARD Pascale 23216 D45 2704NM 1:09:11 23'03 2410 3408 +998 2961
26 LECOYER Annick 2885 D60 0207PI 1:11:57 23'59 2919 3277 +358 3139
27 RICKARD Michael 16976 H70 3308AQ 1:12:00 24'00 2990 3274 +284 3162
28 BERGER M-Jose 7182 D60 5703LO 1:12:14 24'04 4040 3264 -776 3873
29 COUPEY Guy 5118 H70 2704NM 1:13:34 24'31 2501 3205 +704 3133
30 GARROS Jocelyne 1298 D60 6408AQ 1:16:55 25'38 2949 3065 +116 2938
31 BROUILLET Frédérique 19875 D45 1705PC 1:17:39 25'53 3242 3036 -206 3179
32 POGU Paulette 4671 D60 5402LO 1:18:32 26'10 3240 3002 -238 3071
33 RABALLARD Emmanuelle 22062 D40 8607PC 1:24:26 28'08 1609 2792 +1183 2400
34 MONTANARI Colette 2533 D60 5703LO 1:24:44 28'14 3715 2782 -933 3437
35 MOULIERE M-Bernadette 2888 D65 0207PI 1:25:18 28'26 3539 2764 -775 3701
36 PROST Gisele 2182 D60 9307IF 1:29:26 29'48 2848 2636 -212 2848
37 KIEFFER Mireille 2680 D65 2101BO 1:33:39 31'13 2779 2517 -262 2829
38 LUDEWIG-JAMES Carol 15894 D70 5907NO 1:35:39 31'53 2388 2465 +77 2521
39 BLUM Sylvain 13672 H55 5116CA 1:36:34 32'11 2647 2441 -206 2934
40 LEBIAN-DEROME Annie 8121 D65 9502IF 1:45:06 35'02 2319 2243 -76 2508
41 BASTIEN-FATH Nicole 8954 D65 5402LO 1:52:44 37'34 2564 2091 -473 2466
42 SERRE Francine 3429 D45 5907NO 1:57:08 39'02 1789 2013 +224 2518
QUEYROI Yvette 14021 D50 3308AQ abandon None 2107 0 1895
RIOFFRAY Jacqueline 25 D60 4204RA pm None 1827 0 1999